map of ALY home
Great Circle Mapper logo
ALY - Airport
Location
City:  Alexandria, Egypt
Name:Alexandria International Airport
Old (Alt.):El Nouzha Airport
ICAO / IATA:HEAX / ALY

Details
Type:Airport (Aerodrome, Airfield)
Use:Public/Civil, International (customs port of entry)
Latitude:3111'02"N (31.183903)
Longitude:2956'56"E (29.948889)
Datum:WGS 1984
Elevation:-6 ft (-1 m)
Runways:2
Longest:7221 × 148 ft (2201 × 45 m), paved

Time
Time Zone:UTC+2
Local Time:

Weather
METAR:HEAX 200700Z 33010KT 9999 SCT020 25/13 Q1015 NOSIG
TAF:HEAX 200500Z 2006/2112 35014KT 9999 SCT025 BKN050= TAF HECA 200500Z 2006/2112 35008KT 6000 NSC
TEMPO 2006/2008 VRB03KT 4000 BR NSC
BECMG 2008/2010 33014KT 9999 FEW025 SCT030

Related Locations
Nearby:
Farthest:NTAV: 11908 mi / 19163 km
Raivavae, Tubuai Islands, Austral Islands, PF

Find:

   beyond  
but within

Other Information
Maps:
NOTAMs:
Links:
Sources:

  
flag of Egypt   

Airport Diagram

Airport diagram for ALY

Airport diagram (OBSOLETE) from NGA

Sectional Chart

Flight Planning
at skyvector.com

Satellite Image

Google Maps Satellite View

 

Copyright © 2004-2014 Karl L. Swartz. All rights reserved.
The Great Circle Mapper name and logo are trademarks of the Great Circle Mapper.
All other trademarks mentioned herein belong to their respective owners.
Please see credits for attibutions and further copyright information.

  Follow gcmap on Facebook Follow gcmap on Twitter

hCard Microformat

Geo Microformat